Time;durP1;ratioP1;P1;durP2;ratioP2;P2;SDS_P1;SDS_P2;PMS_P1;PMS_P2;Temp;Humidity;BMP_temperature;BMP_pressure;BME280_temperature;BME280_humidity;BME280_pressure;Samples;Min_cycle;Max_cycle;Signal;HPM_P1;HPM_P2
2021/10/26 00:01:59;;;;;;;17.92;7.90;;;8.50;99.90;;;9.13;81.97;101390.22;5073807;28;20192;-75
2021/10/26 00:04:27;;;;;;;16.85;7.97;;;8.50;99.90;;;9.13;81.96;101390.22;5059916;28;20212;-72
2021/10/26 00:06:54;;;;;;;17.75;8.15;;;8.50;99.90;;;9.14;81.76;101378.03;5072490;28;20191;-75
2021/10/26 00:09:22;;;;;;;18.85;8.18;;;8.50;99.90;;;9.13;81.97;101390.22;5075638;28;20230;-72
2021/10/26 00:11:49;;;;;;;18.17;7.85;;;8.50;99.90;;;9.12;81.89;101391.13;5070612;28;20260;-72
2021/10/26 00:14:17;;;;;;;18.40;8.60;;;8.40;99.90;;;9.09;81.84;101387.72;5061511;28;20220;-75
2021/10/26 00:16:45;;;;;;;19.65;8.15;;;8.40;99.90;;;9.09;81.76;101393.81;5078437;28;20195;-73
2021/10/26 00:19:11;;;;;;;18.52;8.50;;;8.40;99.90;;;9.11;82.03;101386.78;5064767;28;20196;-73
2021/10/26 00:21:38;;;;;;;16.88;7.93;;;8.40;99.90;;;9.12;82.00;101385.91;5063682;28;20243;-72
2021/10/26 00:24:06;;;;;;;19.42;8.55;;;8.40;99.90;;;9.14;82.04;101383.28;5074295;28;20215;-73
2021/10/26 00:26:33;;;;;;;18.92;8.07;;;8.40;99.90;;;9.17;81.68;101373.63;5063829;28;20200;-72
2021/10/26 00:28:59;;;;;;;20.33;8.32;;;8.50;99.90;;;9.18;81.87;101364.88;5065782;28;20199;-73
2021/10/26 00:31:29;;;;;;;16.17;7.80;;;8.50;99.90;;;9.21;81.71;101374.41;5067971;28;20191;-73
2021/10/26 00:33:56;;;;;;;15.55;7.93;;;8.50;99.90;;;9.25;81.66;101365.59;5065197;28;20207;-75
2021/10/26 00:36:23;;;;;;;18.60;8.75;;;8.60;99.90;;;9.31;81.72;101357.66;5070635;28;20199;-73
2021/10/26 00:38:50;;;;;;;18.63;8.52;;;8.70;99.90;;;9.36;81.90;101359.25;5067583;28;20188;-75
2021/10/26 00:41:17;;;;;;;17.27;7.75;;;8.70;99.90;;;9.39;81.54;101359.22;5070165;28;20684;-73
2021/10/26 00:43:44;;;;;;;18.23;7.68;;;8.70;99.90;;;9.42;81.57;101361.75;5056481;28;20191;-73
2021/10/26 00:46:12;;;;;;;17.40;7.75;;;8.80;99.90;;;9.47;81.17;101359.91;5064447;28;20211;-73
2021/10/26 00:48:40;;;;;;;18.48;8.68;;;8.80;99.90;;;9.51;81.55;101358.91;5065406;28;20199;-72
2021/10/26 00:51:09;;;;;;;18.95;7.78;;;8.80;99.90;;;9.53;80.97;101359.75;5070820;28;20219;-73
2021/10/26 00:53:37;;;;;;;18.08;7.70;;;8.80;99.90;;;9.55;80.93;101352.72;5077973;28;20215;-72
2021/10/26 00:56:05;;;;;;;18.48;7.70;;;8.90;99.90;;;9.57;80.95;101353.56;5072582;28;20205;-75
2021/10/26 00:58:32;;;;;;;16.08;7.57;;;8.90;99.90;;;9.59;81.02;101362.22;5071367;28;20199;-73
2021/10/26 01:00:59;;;;;;;16.23;7.97;;;9.00;99.90;;;9.60;81.02;101356.09;5069684;28;20717;-72
2021/10/26 01:03:26;;;;;;;17.83;8.20;;;9.00;99.90;;;9.64;80.86;101354.28;5061205;28;20561;-73
2021/10/26 01:05:56;;;;;;;14.50;7.65;;;9.00;99.90;;;9.64;80.53;101356.88;5074009;28;20228;-73
2021/10/26 01:08:24;;;;;;;18.52;7.95;;;9.00;99.90;;;9.62;80.40;101359.53;5069905;28;20188;-75
2021/10/26 01:10:52;;;;;;;17.35;7.82;;;9.00;99.90;;;9.62;80.69;101354.31;5067017;28;20187;-72
2021/10/26 01:13:23;;;;;;;16.05;7.65;;;9.00;99.90;;;9.63;80.44;101353.41;5073455;28;20239;-71
2021/10/26 01:15:54;;;;;;;16.05;7.57;;;9.00;99.90;;;9.61;80.44;101354.34;5068760;28;20225;-74
2021/10/26 01:18:33;;;;;;;16.70;7.20;;;9.00;99.90;;;9.57;80.24;101358.78;5064936;28;20196;-73
2021/10/26 01:21:02;;;;;;;16.25;7.20;;;9.00;99.90;;;9.54;80.57;101364.09;5072536;28;20209;-74
2021/10/26 01:23:30;;;;;;;16.35;7.65;;;8.90;99.90;;;9.51;80.63;101368.53;5074126;28;20226;-73
2021/10/26 01:25:57;;;;;;;16.00;8.00;;;8.90;99.90;;;9.48;80.52;101366.81;5072753;28;20212;-72
2021/10/26 01:28:24;;;;;;;18.00;7.63;;;8.90;99.90;;;9.47;80.45;101372.94;5064529;28;20188;-73
2021/10/26 01:30:53;;;;;;;15.88;7.40;;;8.90;99.90;;;9.43;80.39;101373.91;5068624;28;20192;-76
2021/10/26 01:33:40;;;;;;;18.55;7.75;;;8.90;99.90;;;9.41;80.42;101367.84;5057483;28;20235;-74
2021/10/26 01:36:21;;;;;;;14.45;7.00;;;8.80;99.90;;;9.41;80.46;101373.06;5068343;28;20284;-75
2021/10/26 01:38:48;;;;;;;15.27;7.63;;;8.80;99.90;;;9.40;80.51;101373.97;5067046;28;20187;-71
2021/10/26 01:41:16;;;;;;;15.43;7.13;;;8.80;99.90;;;9.38;80.36;101374.88;5070802;28;20209;-74
2021/10/26 01:43:43;;;;;;;16.60;7.40;;;8.80;99.90;;;9.36;80.60;101374.94;5070147;28;20247;-72
2021/10/26 01:46:10;;;;;;;17.95;7.70;;;8.80;99.90;;;9.35;80.59;101373.22;5075290;28;20218;-75
2021/10/26 01:48:39;;;;;;;15.57;7.65;;;8.80;99.90;;;9.37;80.74;101379.28;5075135;28;20279;-73
2021/10/26 01:51:06;;;;;;;18.00;7.25;;;8.80;99.90;;;9.38;80.74;101378.38;5080113;28;20191;-73
2021/10/26 01:53:35;;;;;;;14.85;7.88;;;8.80;99.90;;;9.40;80.79;101373.97;5065392;28;20303;-73
2021/10/26 01:56:05;;;;;;;17.23;7.75;;;8.80;99.90;;;9.43;80.58;101379.13;5076278;28;20214;-72
2021/10/26 01:58:50;;;;;;;19.00;7.20;;;8.80;99.90;;;9.44;80.48;101366.94;5081885;28;20200;-73
2021/10/26 02:01:22;;;;;;;16.38;7.30;;;8.80;99.90;;;9.40;80.35;101362.66;5063821;28;20203;-72
2021/10/26 02:03:50;;;;;;;15.85;7.78;;;8.80;99.90;;;9.37;80.56;101374.06;5084356;28;20188;-73
2021/10/26 02:06:21;;;;;;;17.25;7.93;;;8.80;99.90;;;9.37;80.41;101366.22;5072504;28;20199;-73
2021/10/26 02:08:49;;;;;;;18.45;7.40;;;8.70;99.90;;;9.37;80.64;101370.56;5074782;28;20198;-72
2021/10/26 02:11:16;;;;;;;17.58;7.30;;;8.70;99.90;;;9.33;80.71;101364.56;5070497;28;22489;-73
2021/10/26 02:13:43;;;;;;;20.05;7.30;;;8.70;99.90;;;9.30;80.78;101362.00;5074332;28;20789;-73
2021/10/26 02:16:11;;;;;;;15.20;7.20;;;8.70;99.90;;;9.30;80.77;101362.00;5074681;28;20274;-73
2021/10/26 02:18:39;;;;;;;17.15;7.30;;;8.70;99.90;;;9.29;80.74;101360.31;5082390;28;20597;-72
2021/10/26 02:21:06;;;;;;;15.80;7.72;;;8.60;99.90;;;9.29;80.78;101368.16;5073362;28;20296;-73
2021/10/26 02:23:33;;;;;;;15.55;8.13;;;8.60;99.90;;;9.27;80.58;101371.66;5075351;28;20231;-73
2021/10/26 02:26:01;;;;;;;17.27;7.18;;;8.60;99.90;;;9.25;80.84;101361.25;5065854;28;20216;-74
2021/10/26 02:28:29;;;;;;;15.30;7.63;;;8.60;99.90;;;9.24;81.05;101364.78;5066471;28;20298;-72
2021/10/26 02:30:55;;;;;;;15.15;7.38;;;8.60;99.90;;;9.24;80.98;101363.91;5061752;28;20560;-72
2021/10/26 02:33:23;;;;;;;17.35;7.75;;;8.60;99.90;;;9.23;80.79;101368.25;5086333;28;20682;-75
2021/10/26 02:35:49;;;;;;;14.27;6.97;;;8.60;99.90;;;9.25;80.96;101361.25;5070794;28;20219;-73
2021/10/26 02:38:17;;;;;;;16.55;7.15;;;8.60;99.90;;;9.25;80.77;101363.88;5061644;28;20197;-73
2021/10/26 02:40:44;;;;;;;15.57;7.88;;;8.50;99.90;;;9.25;80.89;101356.03;5064384;28;20324;-73
2021/10/26 02:43:12;;;;;;;15.25;7.38;;;8.60;99.90;;;9.25;80.77;101356.03;5064079;28;20187;-72
2021/10/26 02:45:39;;;;;;;20.10;7.70;;;8.60;99.90;;;9.22;80.73;101353.50;5069328;28;20211;-72
2021/10/26 02:48:09;;;;;;;16.85;7.05;;;8.60;99.90;;;9.22;80.97;101353.50;5075186;28;20196;-72
2021/10/26 02:50:36;;;;;;;16.15;7.88;;;8.50;99.90;;;9.21;80.86;101362.19;5082188;28;20291;-73
2021/10/26 02:53:03;;;;;;;14.40;7.65;;;8.50;99.90;;;9.20;80.65;101367.47;5066566;28;20616;-73
2021/10/26 02:55:30;;;;;;;13.60;6.88;;;8.50;99.90;;;9.15;80.96;101359.72;5065931;28;20220;-73
2021/10/26 02:57:57;;;;;;;17.35;7.38;;;8.50;99.90;;;9.12;81.10;101357.19;5056304;28;20215;-70
2021/10/26 03:00:26;;;;;;;19.70;7.93;;;8.50;99.90;;;9.12;81.28;101359.81;5062412;28;20615;-74
2021/10/26 03:02:56;;;;;;;18.92;7.88;;;8.50;99.90;;;9.11;81.11;101347.63;5077811;28;20271;-71
2021/10/26 03:05:23;;;;;;;16.85;7.25;;;8.50;99.90;;;9.11;81.30;101352.00;5068553;28;20210;-73
2021/10/26 03:07:51;;;;;;;14.82;6.90;;;8.50;99.90;;;9.09;81.44;101354.66;5070407;28;20196;-73
2021/10/26 03:10:18;;;;;;;15.20;6.88;;;8.40;99.90;;;9.11;81.44;101358.06;5060317;28;20206;-73
2021/10/26 03:12:45;;;;;;;17.08;7.65;;;8.50;99.90;;;9.09;81.26;101356.41;5069663;28;20192;-74
2021/10/26 03:15:14;;;;;;;20.23;8.23;;;8.50;99.90;;;9.10;81.37;101350.28;5071601;28;20220;-73
2021/10/26 03:17:42;;;;;;;14.93;7.45;;;8.50;99.90;;;9.11;81.27;101352.84;5069334;28;20193;-73
2021/10/26 03:20:15;;;;;;;15.85;7.22;;;8.50;99.90;;;9.13;81.20;101364.13;5068261;28;20242;-72
2021/10/26 03:22:41;;;;;;;16.92;7.57;;;8.50;99.90;;;9.12;81.40;101354.59;5068182;28;20634;-74
2021/10/26 03:25:10;;;;;;;16.20;7.43;;;8.50;99.90;;;9.11;81.23;101358.06;5074195;28;20216;-73
2021/10/26 03:27:37;;;;;;;18.63;7.55;;;8.50;99.90;;;9.13;81.54;101355.41;5081485;28;20193;-72
2021/10/26 03:30:08;;;;;;;16.08;6.97;;;8.50;99.90;;;9.14;81.23;101350.19;5067825;28;20211;-73
2021/10/26 03:32:35;;;;;;;16.38;7.53;;;8.50;99.90;;;9.17;81.31;101344.91;5067640;28;20685;-73
2021/10/26 03:35:22;;;;;;;18.02;7.40;;;8.50;99.90;;;9.20;81.37;101354.41;5068543;28;21009;-73
2021/10/26 03:37:49;;;;;;;17.30;7.53;;;8.60;99.90;;;9.22;81.25;101358.72;5078070;28;20192;-72
2021/10/26 03:40:16;;;;;;;16.13;7.40;;;8.60;99.90;;;9.22;81.34;101355.25;5068282;28;20215;-71
2021/10/26 03:42:43;;;;;;;17.42;7.80;;;8.60;99.90;;;9.18;81.15;101359.66;5066718;28;20202;-73
2021/10/26 03:45:11;;;;;;;15.13;7.40;;;8.60;99.90;;;9.20;81.39;101357.88;5067123;28;20302;-73
2021/10/26 03:47:40;;;;;;;17.60;7.50;;;8.60;99.90;;;9.23;81.39;101367.38;5061448;28;20659;-72
2021/10/26 03:50:08;;;;;;;15.43;7.35;;;8.60;99.90;;;9.23;81.26;101360.41;5069367;28;20183;-73
2021/10/26 03:52:37;;;;;;;16.15;7.72;;;8.70;99.90;;;9.24;81.29;101359.56;5063425;28;20231;-73
2021/10/26 03:55:06;;;;;;;15.75;7.38;;;8.60;99.90;;;9.23;81.01;101357.81;5069997;28;20232;-73
2021/10/26 03:57:33;;;;;;;17.58;7.80;;;8.70;99.90;;;9.22;81.08;101356.09;5079229;28;20188;-73
2021/10/26 04:00:01;;;;;;;15.63;7.22;;;8.70;99.90;;;9.23;81.34;101357.81;5070069;28;20595;-72
2021/10/26 04:02:31;;;;;;;17.98;7.65;;;8.70;99.90;;;9.24;81.12;101356.06;5064246;28;20200;-73
2021/10/26 04:05:01;;;;;;;17.92;7.93;;;8.70;99.90;;;9.27;81.00;101362.09;5074439;28;20653;-72
2021/10/26 04:07:29;;;;;;;17.45;7.95;;;8.70;99.90;;;9.29;81.10;101365.53;5071844;28;20204;-73
2021/10/26 04:10:00;;;;;;;15.93;7.43;;;8.70;99.90;;;9.27;81.16;101362.09;5063187;28;20662;-76
2021/10/26 04:12:32;;;;;;;18.35;7.32;;;8.70;99.90;;;9.27;80.99;101358.59;5070051;28;20204;-72
2021/10/26 04:15:02;;;;;;;18.00;7.47;;;8.70;99.90;;;9.30;81.08;101364.63;5065769;28;20219;-73
2021/10/26 04:17:30;;;;;;;16.95;7.55;;;8.70;99.90;;;9.31;80.89;101368.94;5063547;28;20216;-72
2021/10/26 04:19:59;;;;;;;17.00;7.05;;;8.70;99.90;;;9.28;81.14;101366.41;5069327;28;20191;-74
2021/10/26 04:22:27;;;;;;;19.60;7.53;;;8.70;99.90;;;9.30;81.22;101374.19;5073693;28;20653;-73
2021/10/26 04:24:54;;;;;;;17.88;7.70;;;8.80;99.90;;;9.32;80.93;101373.28;5074556;28;20210;-73
2021/10/26 04:27:25;;;;;;;16.58;7.20;;;8.80;99.90;;;9.36;80.78;101374.94;5086935;28;20188;-72
2021/10/26 04:29:51;;;;;;;17.58;7.80;;;8.80;99.90;;;9.39;80.65;101368.78;5061561;28;20184;-75
2021/10/26 04:32:19;;;;;;;15.90;7.82;;;8.80;99.90;;;9.37;81.05;101373.19;5066908;28;20195;-72
2021/10/26 04:34:52;;;;;;;17.33;7.43;;;8.80;99.90;;;9.37;81.18;101379.28;5058875;28;20307;-72
2021/10/26 04:37:19;;;;;;;19.27;7.90;;;8.80;99.90;;;9.39;81.00;101374.88;5082873;28;20185;-72
2021/10/26 04:39:46;;;;;;;18.67;7.43;;;8.80;99.90;;;9.36;80.71;101377.53;5086792;28;20187;-72
2021/10/26 04:42:14;;;;;;;17.08;7.15;;;8.80;99.90;;;9.34;81.17;101368.91;5068779;28;20294;-72
2021/10/26 04:44:42;;;;;;;14.93;7.35;;;8.80;99.90;;;9.34;81.01;101371.50;5070958;28;20215;-74
2021/10/26 04:47:12;;;;;;;15.43;7.25;;;8.80;99.90;;;9.37;81.06;101378.41;5056479;28;20193;-73
2021/10/26 04:49:39;;;;;;;15.35;7.55;;;8.80;99.90;;;9.36;81.00;101381.91;5068750;28;20196;-73
2021/10/26 04:52:06;;;;;;;14.20;6.57;;;8.80;99.90;;;9.34;80.92;101375.88;5065535;28;20195;-72
2021/10/26 04:54:33;;;;;;;16.38;7.05;;;8.80;99.90;;;9.37;81.06;101367.97;5077267;28;20691;-73
2021/10/26 04:57:04;;;;;;;14.35;7.03;;;8.80;99.90;;;9.37;80.82;101366.22;5071175;28;20188;-73
2021/10/26 04:59:58;;;;;;;16.38;7.00;;;8.80;99.90;;;9.38;81.08;101373.16;5061545;28;20200;-73
2021/10/26 05:02:27;;;;;;;14.40;7.47;;;8.80;99.90;;;9.38;81.04;101375.75;5054870;28;20275;-73
2021/10/26 05:04:54;;;;;;;13.88;6.60;;;8.90;99.90;;;9.39;80.96;101380.09;5061637;28;20212;-73
2021/10/26 05:07:21;;;;;;;17.40;7.38;;;8.90;99.90;;;9.38;81.17;101388.81;5061502;28;20196;-76
2021/10/26 05:09:47;;;;;;;16.48;7.38;;;8.90;99.90;;;9.40;81.21;101386.16;5094786;28;20203;-72
2021/10/26 05:12:14;;;;;;;15.60;7.53;;;8.90;99.90;;;9.42;81.44;101384.38;5064050;28;20207;-75
2021/10/26 05:14:41;;;;;;;16.40;7.47;;;8.90;99.90;;;9.44;81.22;101386.09;5069019;28;20224;-73
2021/10/26 05:17:37;;;;;;;15.68;7.57;;;8.90;99.90;;;9.50;81.44;101382.47;5059970;28;20224;-72
2021/10/26 05:20:23;;;;;;;16.10;7.15;;;8.90;99.90;;;9.52;81.38;101378.94;5072443;28;20206;-72
2021/10/26 05:23:09;;;;;;;16.60;7.10;;;8.90;99.90;;;9.49;81.14;101386.84;5055248;28;20216;-73
2021/10/26 05:25:55;;;;;;;16.40;7.15;;;8.90;99.90;;;9.46;81.25;101386.88;5061974;28;20303;-72
2021/10/26 05:28:31;;;;;;;18.25;7.32;;;8.90;99.90;;;9.46;81.55;101391.28;5072191;28;20207;-73
2021/10/26 05:30:58;;;;;;;21.33;7.43;;;9.00;99.90;;;9.47;81.56;101388.63;5063111;28;20197;-72
2021/10/26 05:33:27;;;;;;;16.80;7.35;;;9.00;99.90;;;9.49;81.45;101392.06;5059643;28;20726;-73
2021/10/26 05:35:54;;;;;;;15.32;6.78;;;8.90;99.90;;;9.49;81.71;101388.59;5074763;28;20310;-74
2021/10/26 05:38:21;;;;;;;17.02;7.38;;;9.00;99.90;;;9.50;81.41;101388.56;5072176;28;20199;-74
2021/10/26 05:40:48;;;;;;;14.30;7.05;;;9.00;99.90;;;9.50;81.52;101391.16;5071849;28;20195;-77
2021/10/26 05:43:15;;;;;;;15.98;7.50;;;9.00;99.90;;;9.54;81.70;101398.06;5063932;28;20527;-73
2021/10/26 05:45:45;;;;;;;15.32;7.40;;;9.00;99.90;;;9.56;81.71;101398.00;5070456;28;20224;-73
2021/10/26 05:48:12;;;;;;;17.77;7.32;;;9.00;99.90;;;9.55;81.70;101398.88;5072734;28;20779;-75
2021/10/26 05:50:41;;;;;;;15.75;6.85;;;9.00;99.90;;;9.58;81.79;101394.47;5066978;28;20623;-74
2021/10/26 05:53:08;;;;;;;19.13;7.60;;;9.00;99.90;;;9.59;81.72;101390.09;5083756;28;20183;-73
2021/10/26 05:55:34;;;;;;;15.15;6.53;;;9.10;99.90;;;9.60;81.63;101399.66;5075975;28;20208;-74
2021/10/26 05:58:01;;;;;;;18.25;6.90;;;9.00;99.90;;;9.61;81.78;101396.16;5065500;28;20203;-76
2021/10/26 06:00:28;;;;;;;15.70;7.20;;;9.00;99.90;;;9.64;81.77;101391.72;5066670;28;20203;-73
2021/10/26 06:02:55;;;;;;;15.18;7.13;;;9.10;99.90;;;9.68;81.81;101393.34;5067759;28;21159;-73
2021/10/26 06:05:22;;;;;;;17.63;7.13;;;9.10;99.90;;;9.74;81.80;101408.03;5071626;28;20227;-73
2021/10/26 06:07:51;;;;;;;16.77;6.63;;;9.10;99.90;;;9.75;81.53;101408.00;5056829;28;20200;-73
2021/10/26 06:10:19;;;;;;;15.50;7.40;;;9.20;99.90;;;9.78;81.75;101407.06;5062415;28;20188;-73
2021/10/26 06:12:54;;;;;;;15.00;6.88;;;9.20;99.90;;;9.80;81.79;101406.16;5059038;28;20215;-72
2021/10/26 06:15:21;;;;;;;14.23;6.45;;;9.20;99.90;;;9.81;81.85;101415.69;5079225;28;20242;-72
2021/10/26 06:17:47;;;;;;;16.83;6.85;;;9.30;99.90;;;9.79;81.75;101417.50;5071691;28;20184;-72
2021/10/26 06:20:16;;;;;;;15.65;6.88;;;9.30;99.90;;;9.77;82.12;101419.28;5063464;28;20196;-74
2021/10/26 06:22:42;;;;;;;15.00;7.20;;;9.20;99.90;;;9.77;81.92;101413.19;5058164;28;20204;-73
2021/10/26 06:25:11;;;;;;;15.30;6.68;;;9.30;99.90;;;9.79;82.34;101420.13;5067961;28;20578;-73
2021/10/26 06:28:01;;;;;;;14.73;6.63;;;9.30;99.90;;;9.84;82.17;101430.47;5058820;28;20200;-73
2021/10/26 06:30:28;;;;;;;17.55;6.93;;;9.30;99.90;;;9.84;82.02;101423.50;5055186;28;20193;-72
2021/10/26 06:33:07;;;;;;;16.65;6.93;;;9.30;99.90;;;9.86;82.30;101424.28;5067752;28;20192;-73
2021/10/26 06:35:39;;;;;;;18.60;7.47;;;9.40;99.90;;;9.89;82.32;101426.00;5062122;28;20231;-75
2021/10/26 06:38:08;;;;;;;16.52;7.18;;;9.40;99.90;;;9.92;82.12;101425.91;5059790;28;20192;-72
2021/10/26 06:40:38;;;;;;;14.80;6.75;;;9.40;99.90;;;9.97;82.25;101427.53;5058316;28;20291;-74
2021/10/26 06:43:23;;;;;;;16.13;6.78;;;9.40;99.90;;;9.98;82.27;101442.31;5059923;28;20195;-73
2021/10/26 06:46:10;;;;;;;15.18;6.78;;;9.50;99.90;;;10.02;82.41;101456.19;5050331;28;20289;-73
2021/10/26 06:49:16;;;;;;;15.82;6.85;;;9.50;99.90;;;10.05;82.15;101451.75;5050618;28;20244;-72
2021/10/26 06:52:01;;;;;;;15.45;6.95;;;9.50;99.90;;;10.10;82.19;101449.91;5044220;28;20195;-73
2021/10/26 06:54:46;;;;;;;16.00;6.50;;;9.60;99.90;;;10.13;82.29;101465.50;5073854;28;20260;-73
2021/10/26 06:57:45;;;;;;;17.67;8.10;;;9.60;99.90;;;10.18;82.63;101461.94;5059274;28;20350;-72
2021/10/26 07:00:31;;;;;;;15.38;7.68;;;9.70;99.90;;;10.24;82.30;101467.00;5062577;28;20204;-72
2021/10/26 07:03:24;;;;;;;18.15;8.57;;;9.70;99.90;;;10.26;82.25;101468.72;5051928;28;20192;-74
2021/10/26 07:06:23;;;;;;;19.83;7.50;;;9.70;99.90;;;10.30;82.38;101469.50;5052951;28;20193;-75
2021/10/26 07:08:58;;;;;;;19.65;7.93;;;9.80;99.90;;;10.36;82.55;101477.19;5062726;28;20195;-76
2021/10/26 07:11:28;;;;;;;17.95;7.82;;;9.80;99.90;;;10.41;82.47;101473.56;5064632;28;20205;-73
2021/10/26 07:13:58;;;;;;;17.90;7.45;;;9.90;99.90;;;10.48;82.36;101471.66;5068091;28;20185;-73
2021/10/26 07:16:25;;;;;;;17.27;7.50;;;10.00;99.90;;;10.55;82.33;101468.00;5067582;28;20232;-74
2021/10/26 07:18:52;;;;;;;15.13;6.95;;;10.00;99.90;;;10.62;82.43;101464.31;5065523;28;20567;-73
2021/10/26 07:21:20;;;;;;;17.67;7.65;;;10.10;99.90;;;10.66;81.91;101463.34;5060268;28;20199;-73
2021/10/26 07:24:12;;;;;;;19.75;7.70;;;10.10;99.90;;;10.72;81.90;101471.03;5067796;28;20567;-73
2021/10/26 07:26:45;;;;;;;17.48;7.53;;;10.20;99.90;;;10.78;82.09;101463.03;5075974;28;20681;-73
2021/10/26 07:29:13;;;;;;;14.98;6.97;;;10.20;99.90;;;10.85;82.35;101469.81;5059597;28;20221;-72
2021/10/26 07:31:40;;;;;;;16.73;7.13;;;10.30;99.90;;;10.89;82.04;101469.69;5082617;28;20199;-73
2021/10/26 07:34:10;;;;;;;17.35;7.50;;;10.30;99.90;;;10.93;81.99;101470.47;5057166;28;20238;-73
2021/10/26 07:36:42;;;;;;;19.90;7.38;;;10.40;99.90;;;10.97;82.14;101472.97;5075773;28;20207;-71
2021/10/26 07:39:21;;;;;;;18.42;8.02;;;10.40;99.90;;;11.00;81.89;101462.41;5069292;28;20274;-73
2021/10/26 07:41:48;;;;;;;19.85;8.35;;;10.50;99.90;;;11.03;82.08;101471.94;5065292;28;20202;-74
2021/10/26 07:44:35;;;;;;;18.25;7.47;;;10.50;99.90;;;11.04;82.25;101466.66;5063331;28;20909;-74
2021/10/26 07:47:04;;;;;;;19.70;7.68;;;10.50;99.90;;;11.08;82.38;101470.94;5057624;28;20568;-73
2021/10/26 07:49:34;;;;;;;19.73;7.88;;;10.60;99.90;;;11.15;82.40;101484.72;5068759;28;20242;-71
2021/10/26 07:52:02;;;;;;;17.08;7.95;;;10.70;99.90;;;11.18;82.23;101482.88;5056961;28;20201;-75
2021/10/26 07:54:29;;;;;;;20.27;8.25;;;10.70;99.90;;;11.22;82.56;101483.63;5077829;28;20213;-73
2021/10/26 07:57:02;;;;;;;17.13;7.53;;;10.80;99.90;;;11.28;82.36;101486.09;5076182;28;20671;-70
2021/10/26 07:59:29;;;;;;;21.42;8.27;;;10.80;99.90;;;11.31;82.33;101479.00;5064109;28;20257;-72
2021/10/26 08:01:57;;;;;;;18.67;7.97;;;10.90;99.90;;;11.36;82.43;101487.59;5064304;28;20566;-74
2021/10/26 08:04:48;;;;;;;19.58;8.30;;;10.90;99.90;;;11.41;82.59;101487.44;5059733;28;20640;-73
2021/10/26 08:07:23;;;;;;;18.30;8.15;;;11.00;99.90;;;11.44;82.49;101495.22;5061772;28;20249;-72
2021/10/26 08:09:53;;;;;;;18.38;7.75;;;11.00;99.90;;;11.46;82.44;101490.81;5063292;28;20188;-76
2021/10/26 08:12:23;;;;;;;20.40;8.70;;;11.00;99.90;;;11.50;82.49;101489.81;5069095;28;20203;-72
2021/10/26 08:14:51;;;;;;;20.35;8.13;;;11.10;99.90;;;11.54;82.55;101487.97;5063952;28;20219;-74
2021/10/26 08:17:20;;;;;;;20.45;9.02;;;11.10;99.90;;;11.55;82.37;101489.69;5058429;28;20283;-70
2021/10/26 08:19:49;;;;;;;17.45;8.80;;;11.20;99.90;;;11.60;82.45;101495.66;5064441;28;20261;-72
2021/10/26 08:22:19;;;;;;;18.02;8.32;;;11.20;99.90;;;11.65;82.70;101491.16;5062103;28;20192;-72
2021/10/26 08:24:56;;;;;;;22.08;8.90;;;11.30;99.90;;;11.67;82.80;101486.75;5071568;28;20263;-73
2021/10/26 08:27:24;;;;;;;22.25;8.90;;;11.30;99.90;;;11.69;82.57;101492.81;5061526;28;20180;-72
2021/10/26 08:29:56;;;;;;;19.05;9.63;;;11.40;99.90;;;11.71;82.62;101483.09;5059875;28;20220;-74
2021/10/26 08:35:23;;;;;;;17.95;8.63;;;11.40;99.90;;;11.74;82.45;101478.63;5076353;28;20215;-71
2021/10/26 08:37:55;;;;;;;22.55;9.35;;;11.40;99.90;;;11.76;82.61;101479.44;5056973;28;20192;-72
2021/10/26 08:40:23;;;;;;;22.08;9.52;;;11.40;99.90;;;11.77;82.72;101481.16;5064097;28;20188;-71
2021/10/26 08:42:54;;;;;;;20.60;9.13;;;11.40;99.90;;;11.81;82.86;101480.16;5064916;28;20195;-70
2021/10/26 08:45:24;;;;;;;20.27;9.40;;;11.40;99.90;;;11.85;83.06;101484.44;5055727;28;20213;-72
2021/10/26 08:47:54;;;;;;;21.40;9.57;;;11.50;99.90;;;11.89;82.94;101483.41;5060301;28;20202;-71
2021/10/26 08:50:39;;;;;;;23.00;9.18;;;11.50;99.90;;;11.92;82.88;101492.97;5060888;28;20568;-73
2021/10/26 08:53:08;;;;;;;21.63;9.85;;;11.50;99.90;;;11.94;82.87;101491.16;5062702;28;20198;-71
2021/10/26 08:55:59;;;;;;;22.63;10.02;;;11.50;99.90;;;11.94;82.87;101485.91;5062756;28;20217;-76
2021/10/26 08:58:44;;;;;;;23.27;9.43;;;11.50;99.90;;;11.95;83.03;101485.88;5065972;28;20573;-73
2021/10/26 09:01:12;;;;;;;21.10;9.90;;;11.50;99.90;;;11.97;82.99;101491.91;5061232;28;20223;-71
2021/10/26 09:04:11;;;;;;;26.17;10.80;;;11.60;99.90;;;11.99;83.32;101497.13;5073278;28;20726;-70
2021/10/26 09:06:45;;;;;;;25.42;10.70;;;11.60;99.90;;;12.02;83.46;101490.00;5062614;28;20223;-73
2021/10/26 09:09:18;;;;;;;21.85;10.57;;;11.60;99.90;;;12.06;83.33;101488.13;5066092;28;20819;-75
2021/10/26 09:18:27;;;;;;;23.08;10.15;;;11.70;99.90;;;12.18;83.44;101500.88;5064759;28;20283;-73
2021/10/26 09:21:04;;;;;;;27.63;10.35;;;11.80;99.90;;;12.22;83.60;101503.34;5074927;28;20319;-74
2021/10/26 09:23:48;;;;;;;23.75;10.32;;;11.80;99.90;;;12.26;83.39;101499.72;5069182;28;20269;-74
2021/10/26 09:26:15;;;;;;;22.10;9.88;;;11.90;99.90;;;12.33;83.45;101503.88;5066399;28;20223;-72
2021/10/26 09:28:53;;;;;;;22.10;9.25;;;11.90;99.90;;;12.38;83.49;101496.72;5065790;28;20290;-73
2021/10/26 09:31:29;;;;;;;30.05;12.77;;;12.00;99.90;;;12.42;83.49;101500.09;5060825;28;20192;-74
2021/10/26 09:34:11;;;;;;;18.92;9.18;;;12.00;99.90;;;12.44;83.68;101503.56;5061196;28;20188;-73
2021/10/26 09:36:42;;;;;;;20.25;9.43;;;12.10;99.90;;;12.46;83.48;101502.56;5078604;28;20227;-73
2021/10/26 09:39:19;;;;;;;19.50;9.02;;;12.10;99.90;;;12.50;83.39;101506.84;5063647;28;20338;-72
2021/10/26 09:42:06;;;;;;;22.10;9.82;;;12.20;99.90;;;12.56;83.20;101514.50;5062985;28;20205;-73
2021/10/26 09:44:38;;;;;;;20.02;9.02;;;12.20;99.90;;;12.61;83.18;101512.56;5067559;28;20208;-72
2021/10/26 09:47:10;;;;;;;19.25;8.63;;;12.30;99.90;;;12.69;83.05;101509.72;5064853;28;20192;-74
2021/10/26 09:49:40;;;;;;;19.98;8.98;;;12.40;99.90;;;12.80;82.78;101517.22;5078460;28;20210;-74
2021/10/26 09:52:14;;;;;;;17.98;8.20;;;12.50;99.90;;;12.89;82.56;101511.66;5058535;28;20189;-73
2021/10/26 09:54:43;;;;;;;18.40;7.55;;;12.60;99.90;;;13.00;82.55;101504.25;5072679;28;20204;-72
2021/10/26 09:57:13;;;;;;;18.80;8.10;;;12.80;99.90;;;13.14;82.37;101507.31;5069060;28;20218;-71
2021/10/26 09:59:49;;;;;;;19.60;7.40;;;12.90;99.90;;;13.25;82.14;101516.53;5067795;28;20193;-73
2021/10/26 10:02:23;;;;;;;18.85;8.02;;;13.10;99.90;;;13.35;81.78;101507.38;5062337;28;20234;-73
2021/10/26 10:04:51;;;;;;;18.95;6.97;;;13.20;99.90;;;13.41;81.71;101507.16;5066835;28;20211;-74
2021/10/26 10:07:30;;;;;;;20.05;7.38;;;13.20;99.90;;;13.48;81.33;101499.94;5066833;28;20192;-73
2021/10/26 10:09:59;;;;;;;18.20;6.78;;;13.30;99.90;;;13.52;81.29;101512.91;5065030;28;20196;-75
2021/10/26 10:12:28;;;;;;;22.10;7.25;;;13.40;99.90;;;13.57;81.24;101512.72;5067016;28;20207;-74
2021/10/26 10:14:56;;;;;;;13.30;6.03;;;13.40;99.90;;;13.63;80.94;101499.38;5077160;28;20216;-72
2021/10/26 10:17:25;;;;;;;14.55;6.40;;;13.50;99.90;;;13.68;80.80;101507.94;5076911;28;20198;-71
2021/10/26 10:19:54;;;;;;;14.35;6.05;;;13.50;99.90;;;13.73;80.67;101492.84;5055927;28;20200;-71
2021/10/26 10:22:30;;;;;;;14.70;6.05;;;13.50;99.90;;;13.74;79.98;101494.53;5072476;28;20196;-72
2021/10/26 10:25:00;;;;;;;15.30;6.32;;;13.60;99.90;;;13.73;80.20;101498.09;5081534;28;20291;-72
2021/10/26 10:27:30;;;;;;;14.57;5.63;;;13.60;99.90;;;13.74;79.72;101497.16;5078129;28;20267;-73
2021/10/26 10:29:58;;;;;;;13.18;5.65;;;13.60;99.90;;;13.73;79.63;101508.63;5066172;28;20250;-73
2021/10/26 10:32:28;;;;;;;12.55;5.50;;;13.60;99.90;;;13.69;79.25;101504.38;5060671;28;20279;-72
2021/10/26 10:34:58;;;;;;;14.45;5.57;;;13.50;99.90;;;13.68;79.33;101502.69;5067476;28;20222;-74
2021/10/26 10:37:30;;;;;;;16.70;6.00;;;13.50;99.90;;;13.68;79.39;101495.63;5069290;28;20211;-72
2021/10/26 10:39:59;;;;;;;13.75;6.03;;;13.50;99.90;;;13.68;79.20;101500.03;5066275;28;20199;-75
2021/10/26 10:42:30;;;;;;;14.88;6.47;;;13.50;99.90;;;13.67;78.92;101493.06;5064421;28;20207;-72